Mumford, NY (14511)

7:17 PM EST on February 01, 2015 (GMT -0500)
Mumford | Change Station
CLOSE
Current Station
Personal Weather Station
Location: Scottsville, NY
Elevation: 600 ft
Nearby Weather Stations
Active Advisory: Winter Storm Warning

Elev 600 ft 43.00 °N, 77.85 °W | Updated 2 seconds ago

Snow
Snow
12.7 °F
Feels Like 13 °F
N
0.9
Wind Variable Wind from SE
Gusts 2.5 mph

Today
High -- | Low -- °F
--% Chance of Precip.
Yesterday
High -- | Low -- °F
Precip. -- in
7:26 AM 5:23 PM
Waxing Gibbous, 96% visible
Pressure 30.14 in
Visibility 6.0 miles
Clouds Few 1600 ft
Scattered Clouds 2800 ft
Overcast 4500 ft
Windchill 13 °F
Dew Point 3 °F
Humidity 64%
Rainfall 0.00 in
Snow Depth Not available.
UV 0.0 out of 12
Pollen .10 out of 12
Air Quality Not available.
Flu Activity Not available.
METAR KROC 012354Z 08009KT 6SM -SN FEW016 SCT028 OVC045 M10/M13 A3010 RMK AO2 SLP204 4/004 P0001 60003 T11001133 11083 21106 58019

More Conditions Fewer Conditions

Pressure 30.14 in
Visibility 6.0 miles
Clouds Few 1600 ft
Scattered Clouds 2800 ft
Overcast 4500 ft
Windchill 13 °F
Dew Point 3 °F
Humidity 64%
Rainfall 0.00 in
Snow Depth Not available.
UV 0.0 out of 12
Pollen .10 out of 12
Air Quality Not available.
Flu Activity Not available.
METAR KROC 012354Z 08009KT 6SM -SN FEW016 SCT028 OVC045 M10/M13 A3010 RMK AO2 SLP204 4/004 P0001 60003 T11001133 11083 21106 58019

More Conditions Fewer Conditions

10-Day Weather Forecast

Almanac

Astronomy

Feb. 01, 2015 Rise Set
Actual Time
Civil Twilight
Nautical Twilight
Astronomical Twilight
Moon
Length of Visible Light
Length of Day
Tomorrow will be .
, % of the Moon is Illuminated

Today's Extremes

State Highs State Lows

Community

WunderPhotos

Upload Photos

1,792,619 photos uploaded!

WunderBlogs® & News

Nearby

Air Quality

  Air Quality AQ Index Pollutant
Not available.

Snow Depth

Station Depth Elevation

Earthquake Activity

City Distance Mag. Time & Date
Minimum magnitude displayed is 2.5.

Coastal Water Temperatures

Place Temperature

Nearby Weather Stations